sensor_id;sensor_type;location;lat;lon;timestamp;pressure;altitude;pressure_sealevel;temperature;humidity
56182;BME280;51963;46.052;14.544;2023-04-09T00:01:16;98719.00;;;4.57;100.00
56182;BME280;51963;46.052;14.544;2023-04-09T00:03:42;98730.72;;;4.62;100.00
56182;BME280;51963;46.052;14.544;2023-04-09T00:06:09;98716.81;;;4.52;100.00
56182;BME280;51963;46.052;14.544;2023-04-09T00:08:35;98726.97;;;4.65;100.00
56182;BME280;51963;46.052;14.544;2023-04-09T00:11:01;98728.09;;;4.62;100.00
56182;BME280;51963;46.052;14.544;2023-04-09T00:13:27;98727.25;;;4.62;100.00
56182;BME280;51963;46.052;14.544;2023-04-09T00:15:52;98728.22;;;4.61;100.00
56182;BME280;51963;46.052;14.544;2023-04-09T00:18:18;98712.38;;;4.52;100.00
56182;BME280;51963;46.052;14.544;2023-04-09T00:20:44;98724.06;;;4.68;100.00
56182;BME280;51963;46.052;14.544;2023-04-09T00:23:09;98722.88;;;4.62;100.00
56182;BME280;51963;46.052;14.544;2023-04-09T00:25:37;98715.16;;;4.51;100.00
56182;BME280;51963;46.052;14.544;2023-04-09T00:28:03;98731.69;;;4.61;100.00
56182;BME280;51963;46.052;14.544;2023-04-09T00:30:29;98724.22;;;4.57;100.00
56182;BME280;51963;46.052;14.544;2023-04-09T00:32:55;98725.59;;;4.61;100.00
56182;BME280;51963;46.052;14.544;2023-04-09T00:35:25;98722.31;;;4.59;100.00
56182;BME280;51963;46.052;14.544;2023-04-09T00:37:55;98729.34;;;4.58;100.00
56182;BME280;51963;46.052;14.544;2023-04-09T00:40:21;98719.28;;;4.53;100.00
56182;BME280;51963;46.052;14.544;2023-04-09T00:42:47;98729.75;;;4.63;100.00
56182;BME280;51963;46.052;14.544;2023-04-09T00:45:12;98734.16;;;4.63;100.00
56182;BME280;51963;46.052;14.544;2023-04-09T00:47:38;98726.97;;;4.65;100.00
56182;BME280;51963;46.052;14.544;2023-04-09T00:50:04;98732.38;;;4.63;100.00
56182;BME280;51963;46.052;14.544;2023-04-09T00:52:31;98735.00;;;4.53;100.00
56182;BME280;51963;46.052;14.544;2023-04-09T00:55:03;98735.56;;;4.57;100.00
56182;BME280;51963;46.052;14.544;2023-04-09T00:57:29;98743.00;;;4.52;100.00
56182;BME280;51963;46.052;14.544;2023-04-09T00:59:55;98735.97;;;4.52;100.00
56182;BME280;51963;46.052;14.544;2023-04-09T01:02:21;98735.97;;;4.52;100.00
56182;BME280;51963;46.052;14.544;2023-04-09T01:04:46;98736.91;;;4.51;100.00
56182;BME280;51963;46.052;14.544;2023-04-09T01:12:46;98738.84;;;4.49;100.00
56182;BME280;51963;46.052;14.544;2023-04-09T01:15:21;98731.56;;;4.43;100.00
56182;BME280;51963;46.052;14.544;2023-04-09T01:17:58;98743.53;;;4.36;100.00
56182;BME280;51963;46.052;14.544;2023-04-09T01:20:34;98729.50;;;4.27;100.00
56182;BME280;51963;46.052;14.544;2023-04-09T01:26:16;98730.03;;;4.50;100.00
56182;BME280;51963;46.052;14.544;2023-04-09T01:28:55;98742.19;;;4.42;100.00
56182;BME280;51963;46.052;14.544;2023-04-09T01:31:34;98733.06;;;4.36;100.00
56182;BME280;51963;46.052;14.544;2023-04-09T01:34:01;98726.19;;;4.35;100.00
56182;BME280;51963;46.052;14.544;2023-04-09T01:36:29;98729.38;;;4.38;100.00
56182;BME280;51963;46.052;14.544;2023-04-09T01:38:59;98727.56;;;4.49;100.00
56182;BME280;51963;46.052;14.544;2023-04-09T01:41:26;98729.09;;;4.32;100.00
56182;BME280;51963;46.052;14.544;2023-04-09T01:43:52;98735.44;;;4.29;100.00
56182;BME280;51963;46.052;14.544;2023-04-09T01:46:20;98731.84;;;4.20;100.00
56182;BME280;51963;46.052;14.544;2023-04-09T01:48:47;98734.31;;;4.12;100.00
56182;BME280;51963;46.052;14.544;2023-04-09T01:51:16;98722.22;;;4.01;100.00
56182;BME280;51963;46.052;14.544;2023-04-09T01:53:42;98735.00;;;4.14;100.00
56182;BME280;51963;46.052;14.544;2023-04-09T01:56:08;98722.06;;;4.03;100.00
56182;BME280;51963;46.052;14.544;2023-04-09T01:58:34;98740.50;;;4.11;100.00
56182;BME280;51963;46.052;14.544;2023-04-09T02:01:31;98737.09;;;4.10;100.00
56182;BME280;51963;46.052;14.544;2023-04-09T02:04:40;98732.81;;;4.09;100.00
56182;BME280;51963;46.052;14.544;2023-04-09T02:07:17;98731.44;;;4.05;100.00
56182;BME280;51963;46.052;14.544;2023-04-09T02:09:52;98722.91;;;4.03;100.00
56182;BME280;51963;46.052;14.544;2023-04-09T02:12:19;98728.13;;;4.13;100.00
56182;BME280;51963;46.052;14.544;2023-04-09T02:14:51;98717.78;;;4.02;100.00
56182;BME280;51963;46.052;14.544;2023-04-09T02:17:18;98730.06;;;4.11;100.00
56182;BME280;51963;46.052;14.544;2023-04-09T02:19:47;98729.91;;;4.22;100.00
56182;BME280;51963;46.052;14.544;2023-04-09T02:22:14;98731.69;;;4.12;100.00
56182;BME280;51963;46.052;14.544;2023-04-09T02:24:40;98726.75;;;4.09;100.00
56182;BME280;51963;46.052;14.544;2023-04-09T02:27:06;98731.56;;;4.04;100.00
56182;BME280;51963;46.052;14.544;2023-04-09T02:29:32;98730.88;;;4.02;100.00
56182;BME280;51963;46.052;14.544;2023-04-09T02:31:58;98731.13;;;3.99;100.00
56182;BME280;51963;46.052;14.544;2023-04-09T02:34:24;98726.34;;;3.94;100.00
56182;BME280;51963;46.052;14.544;2023-04-09T02:36:50;98716.28;;;4.09;100.00
56182;BME280;51963;46.052;14.544;2023-04-09T02:39:16;98721.66;;;4.17;100.00
56182;BME280;51963;46.052;14.544;2023-04-09T02:41:41;98726.22;;;4.25;100.00
56182;BME280;51963;46.052;14.544;2023-04-09T02:44:09;98731.44;;;4.15;100.00
56182;BME280;51963;46.052;14.544;2023-04-09T02:46:35;98729.63;;;4.06;100.00
56182;BME280;51963;46.052;14.544;2023-04-09T02:49:01;98728.25;;;4.02;100.00
56182;BME280;51963;46.052;14.544;2023-04-09T02:51:27;98716.81;;;4.03;100.00
56182;BME280;51963;46.052;14.544;2023-04-09T02:53:53;98713.25;;;4.14;100.00
56182;BME280;51963;46.052;14.544;2023-04-09T02:56:20;98706.34;;;4.22;100.00
56182;BME280;51963;46.052;14.544;2023-04-09T02:58:46;98709.69;;;4.15;100.00
56182;BME280;51963;46.052;14.544;2023-04-09T03:01:14;98712.41;;;4.13;100.00
56182;BME280;51963;46.052;14.544;2023-04-09T03:03:40;98722.34;;;4.09;100.00
56182;BME280;51963;46.052;14.544;2023-04-09T03:06:07;98720.13;;;3.95;100.00
56182;BME280;51963;46.052;14.544;2023-04-09T03:08:32;98724.69;;;3.93;100.00
56182;BME280;51963;46.052;14.544;2023-04-09T03:10:59;98718.19;;;3.87;100.00
56182;BME280;51963;46.052;14.544;2023-04-09T03:13:26;98719.28;;;3.94;100.00
56182;BME280;51963;46.052;14.544;2023-04-09T03:15:52;98726.59;;;3.91;100.00
56182;BME280;51963;46.052;14.544;2023-04-09T03:18:18;98722.47;;;3.88;100.00
56182;BME280;51963;46.052;14.544;2023-04-09T03:20:44;98704.84;;;3.80;100.00
56182;BME280;51963;46.052;14.544;2023-04-09T03:23:11;98711.03;;;4.09;100.00
56182;BME280;51963;46.052;14.544;2023-04-09T03:25:42;98719.72;;;4.19;100.00
56182;BME280;51963;46.052;14.544;2023-04-09T03:28:11;98698.38;;;3.94;100.00
56182;BME280;51963;46.052;14.544;2023-04-09T03:30:49;98720.41;;;4.02;100.00
56182;BME280;51963;46.052;14.544;2023-04-09T03:33:15;98718.19;;;3.87;100.00
56182;BME280;51963;46.052;14.544;2023-04-09T03:35:53;98714.75;;;3.87;100.00
56182;BME280;51963;46.052;14.544;2023-04-09T03:38:31;98724.13;;;3.89;100.00
56182;BME280;51963;46.052;14.544;2023-04-09T03:41:00;98721.50;;;3.89;100.00
56182;BME280;51963;46.052;14.544;2023-04-09T03:43:25;98711.88;;;3.90;100.00
56182;BME280;51963;46.052;14.544;2023-04-09T03:45:54;98714.06;;;3.94;100.00
56182;BME280;51963;46.052;14.544;2023-04-09T03:48:24;98723.16;;;4.00;100.00
56182;BME280;51963;46.052;14.544;2023-04-09T03:50:55;98711.59;;;3.93;100.00
56182;BME280;51963;46.052;14.544;2023-04-09T03:53:34;98708.84;;;3.94;100.00
56182;BME280;51963;46.052;14.544;2023-04-09T03:56:07;98702.22;;;3.90;100.00
56182;BME280;51963;46.052;14.544;2023-04-09T03:58:33;98714.34;;;3.91;100.00
56182;BME280;51963;46.052;14.544;2023-04-09T04:01:00;98716.28;;;3.79;100.00
56182;BME280;51963;46.052;14.544;2023-04-09T04:03:36;98718.72;;;3.81;100.00
56182;BME280;51963;46.052;14.544;2023-04-09T04:06:13;98725.34;;;3.85;100.00
56182;BME280;51963;46.052;14.544;2023-04-09T04:08:53;98719.56;;;3.81;100.00
56182;BME280;51963;46.052;14.544;2023-04-09T04:11:22;98728.22;;;3.82;100.00
56182;BME280;51963;46.052;14.544;2023-04-09T04:13:52;98728.09;;;3.74;100.00
56182;BME280;51963;46.052;14.544;2023-04-09T04:16:21;98730.16;;;3.80;100.00
56182;BME280;51963;46.052;14.544;2023-04-09T04:18:47;98730.56;;;3.85;100.00
56182;BME280;51963;46.052;14.544;2023-04-09T04:21:14;98721.06;;;3.84;100.00
56182;BME280;51963;46.052;14.544;2023-04-09T04:23:44;98720.97;;;3.86;100.00
56182;BME280;51963;46.052;14.544;2023-04-09T04:26:23;98726.72;;;3.89;100.00
56182;BME280;51963;46.052;14.544;2023-04-09T04:28:49;98723.56;;;3.86;100.00
56182;BME280;51963;46.052;14.544;2023-04-09T04:31:27;98722.03;;;3.83;100.00
56182;BME280;51963;46.052;14.544;2023-04-09T04:33:59;98726.47;;;3.83;100.00
56182;BME280;51963;46.052;14.544;2023-04-09T04:36:25;98730.56;;;3.85;100.00
56182;BME280;51963;46.052;14.544;2023-04-09T04:38:51;98714.03;;;3.75;100.00
56182;BME280;51963;46.052;14.544;2023-04-09T04:41:31;98735.25;;;3.91;100.00
56182;BME280;51963;46.052;14.544;2023-04-09T04:44:15;98718.47;;;3.84;100.00
56182;BME280;51963;46.052;14.544;2023-04-09T04:46:41;98735.25;;;3.91;100.00
56182;BME280;51963;46.052;14.544;2023-04-09T04:49:07;98741.47;;;4.10;100.00
56182;BME280;51963;46.052;14.544;2023-04-09T04:51:40;98737.50;;;4.25;100.00
56182;BME280;51963;46.052;14.544;2023-04-09T04:54:10;98742.72;;;4.25;100.00
56182;BME280;51963;46.052;14.544;2023-04-09T04:56:36;98737.63;;;4.24;100.00
56182;BME280;51963;46.052;14.544;2023-04-09T04:59:14;98738.72;;;4.21;100.00
56182;BME280;51963;46.052;14.544;2023-04-09T05:01:53;98741.34;;;4.21;100.00
56182;BME280;51963;46.052;14.544;2023-04-09T05:04:19;98742.72;;;4.25;100.00
56182;BME280;51963;46.052;14.544;2023-04-09T05:06:45;98743.13;;;4.31;100.00
56182;BME280;51963;46.052;14.544;2023-04-09T05:09:16;98732.81;;;4.19;100.00
56182;BME280;51963;46.052;14.544;2023-04-09T05:11:57;98740.94;;;4.16;100.00
56182;BME280;51963;46.052;14.544;2023-04-09T05:14:24;98731.00;;;4.10;100.00
56182;BME280;51963;46.052;14.544;2023-04-09T05:16:50;98748.78;;;4.16;100.00
56182;BME280;51963;46.052;14.544;2023-04-09T05:19:19;98735.84;;;4.05;100.00
56182;BME280;51963;46.052;14.544;2023-04-09T05:21:45;98732.66;;;4.11;100.00
56182;BME280;51963;46.052;14.544;2023-04-09T05:24:11;98740.41;;;4.13;100.00
56182;BME280;51963;46.052;14.544;2023-04-09T05:26:38;98751.81;;;4.21;100.00
56182;BME280;51963;46.052;14.544;2023-04-09T05:29:04;98751.25;;;4.28;100.00
56182;BME280;51963;46.052;14.544;2023-04-09T05:31:30;98751.00;;;4.40;100.00
56182;BME280;51963;46.052;14.544;2023-04-09T05:34:02;98762.31;;;4.31;100.00
56182;BME280;51963;46.052;14.544;2023-04-09T05:36:49;98755.69;;;4.27;100.00
56182;BME280;51963;46.052;14.544;2023-04-09T05:39:44;98754.56;;;4.49;100.00
56182;BME280;51963;46.052;14.544;2023-04-09T05:42:10;98749.72;;;4.54;100.00
56182;BME280;51963;46.052;14.544;2023-04-09T05:45:17;98766.38;;;4.73;100.00
56182;BME280;51963;46.052;14.544;2023-04-09T05:47:54;98768.31;;;4.81;100.00
56182;BME280;51963;46.052;14.544;2023-04-09T05:50:34;98768.28;;;4.91;100.00
56182;BME280;51963;46.052;14.544;2023-04-09T05:53:04;98771.88;;;4.90;100.00
56182;BME280;51963;46.052;14.544;2023-04-09T05:55:41;98780.09;;;5.14;100.00
56182;BME280;51963;46.052;14.544;2023-04-09T05:58:11;98781.75;;;5.16;100.00
56182;BME280;51963;46.052;14.544;2023-04-09T06:00:43;98776.50;;;5.16;100.00
56182;BME280;51963;46.052;14.544;2023-04-09T06:03:12;98772.91;;;5.26;100.00
56182;BME280;51963;46.052;14.544;2023-04-09T06:05:41;98781.13;;;5.41;100.00
56182;BME280;51963;46.052;14.544;2023-04-09T06:08:11;98777.56;;;5.33;100.00
56182;BME280;51963;46.052;14.544;2023-04-09T06:10:41;98785.69;;;5.39;100.00
56182;BME280;51963;46.052;14.544;2023-04-09T06:13:10;98777.72;;;5.31;100.00
56182;BME280;51963;46.052;14.544;2023-04-09T06:15:38;98780.16;;;5.42;100.00
56182;BME280;51963;46.052;14.544;2023-04-09T06:18:04;98772.00;;;5.46;100.00
56182;BME280;51963;46.052;14.544;2023-04-09T06:20:30;98772.53;;;5.49;100.00
56182;BME280;51963;46.052;14.544;2023-04-09T06:22:55;98782.59;;;5.82;100.00
56182;BME280;51963;46.052;14.544;2023-04-09T06:25:21;98744.31;;;5.61;100.00
56182;BME280;51963;46.052;14.544;2023-04-09T06:27:47;98772.19;;;5.90;100.00
56182;BME280;51963;46.052;14.544;2023-04-09T06:30:12;98776.97;;;6.05;100.00
56182;BME280;51963;46.052;14.544;2023-04-09T06:32:40;98782.38;;;6.21;100.00
56182;BME280;51963;46.052;14.544;2023-04-09T06:35:06;98777.41;;;6.36;100.00
56182;BME280;51963;46.052;14.544;2023-04-09T06:37:35;98779.81;;;6.29;100.00
56182;BME280;51963;46.052;14.544;2023-04-09T06:40:02;98793.78;;;6.12;100.00
56182;BME280;51963;46.052;14.544;2023-04-09T06:42:30;98787.84;;;6.10;100.00
56182;BME280;51963;46.052;14.544;2023-04-09T06:45:05;98758.19;;;5.99;100.00
56182;BME280;51963;46.052;14.544;2023-04-09T06:47:33;98775.31;;;6.04;100.00
56182;BME280;51963;46.052;14.544;2023-04-09T06:50:02;98778.09;;;6.20;100.00
56182;BME280;51963;46.052;14.544;2023-04-09T06:52:28;98788.69;;;6.28;100.00
56182;BME280;51963;46.052;14.544;2023-04-09T06:54:53;98781.78;;;6.27;100.00
56182;BME280;51963;46.052;14.544;2023-04-09T06:57:19;98771.31;;;6.72;100.00
56182;BME280;51963;46.052;14.544;2023-04-09T06:59:45;98783.97;;;6.95;100.00
56182;BME280;51963;46.052;14.544;2023-04-09T07:02:10;98790.94;;;6.86;100.00
56182;BME280;51963;46.052;14.544;2023-04-09T07:04:36;98754.88;;;6.70;100.00
56182;BME280;51963;46.052;14.544;2023-04-09T07:07:02;98789.94;;;7.05;100.00
56182;BME280;51963;46.052;14.544;2023-04-09T07:09:27;98786.78;;;7.28;100.00
56182;BME280;51963;46.052;14.544;2023-04-09T07:11:53;98785.28;;;6.99;100.00
56182;BME280;51963;46.052;14.544;2023-04-09T07:14:19;98784.00;;;7.03;100.00
56182;BME280;51963;46.052;14.544;2023-04-09T07:16:45;98780.75;;;7.09;100.00
56182;BME280;51963;46.052;14.544;2023-04-09T07:19:11;98761.78;;;6.97;100.00
56182;BME280;51963;46.052;14.544;2023-04-09T07:21:37;98795.84;;;7.33;100.00
56182;BME280;51963;46.052;14.544;2023-04-09T07:24:03;98790.72;;;7.67;97.91
56182;BME280;51963;46.052;14.544;2023-04-09T07:26:29;98794.31;;;8.00;96.48
56182;BME280;51963;46.052;14.544;2023-04-09T07:28:54;98795.81;;;8.03;97.64
56182;BME280;51963;46.052;14.544;2023-04-09T07:31:20;98802.91;;;8.19;98.14
56182;BME280;51963;46.052;14.544;2023-04-09T07:33:47;98800.84;;;7.88;98.26
56182;BME280;51963;46.052;14.544;2023-04-09T07:36:12;98796.31;;;8.06;96.48
56182;BME280;51963;46.052;14.544;2023-04-09T07:38:47;98803.31;;;7.46;97.83
56182;BME280;51963;46.052;14.544;2023-04-09T07:41:13;98779.31;;;7.49;100.00
56182;BME280;51963;46.052;14.544;2023-04-09T07:43:39;98808.72;;;7.80;97.05
56182;BME280;51963;46.052;14.544;2023-04-09T07:46:07;98808.28;;;7.49;100.00
56182;BME280;51963;46.052;14.544;2023-04-09T07:48:33;98812.50;;;7.42;100.00
56182;BME280;51963;46.052;14.544;2023-04-09T07:50:58;98797.13;;;7.56;100.00
56182;BME280;51963;46.052;14.544;2023-04-09T07:53:24;98802.00;;;7.93;96.98
56182;BME280;51963;46.052;14.544;2023-04-09T07:55:50;98802.13;;;8.35;96.79
56182;BME280;51963;46.052;14.544;2023-04-09T07:58:16;98801.94;;;8.28;97.69
56182;BME280;51963;46.052;14.544;2023-04-09T08:00:42;98810.38;;;8.40;96.99
56182;BME280;51963;46.052;14.544;2023-04-09T08:03:07;98815.03;;;8.55;96.73
56182;BME280;51963;46.052;14.544;2023-04-09T08:05:34;98820.97;;;8.82;92.98
56182;BME280;51963;46.052;14.544;2023-04-09T08:08:00;98796.97;;;8.08;95.29
56182;BME280;51963;46.052;14.544;2023-04-09T08:10:26;98819.28;;;8.39;92.44
56182;BME280;51963;46.052;14.544;2023-04-09T08:12:51;98817.72;;;8.12;93.53
56182;BME280;51963;46.052;14.544;2023-04-09T08:15:17;98819.69;;;8.10;93.27
56182;BME280;51963;46.052;14.544;2023-04-09T08:17:43;98826.88;;;7.91;95.63
56182;BME280;51963;46.052;14.544;2023-04-09T08:20:09;98826.56;;;7.94;93.07
56182;BME280;51963;46.052;14.544;2023-04-09T08:22:35;98823.91;;;7.94;93.59
56182;BME280;51963;46.052;14.544;2023-04-09T08:25:01;98825.09;;;8.00;92.90
56182;BME280;51963;46.052;14.544;2023-04-09T08:27:26;98830.50;;;7.98;92.81
56182;BME280;51963;46.052;14.544;2023-04-09T08:29:52;98815.75;;;8.14;95.73
56182;BME280;51963;46.052;14.544;2023-04-09T08:32:18;98811.44;;;8.04;95.64
56182;BME280;51963;46.052;14.544;2023-04-09T08:34:43;98828.53;;;8.00;94.63
56182;BME280;51963;46.052;14.544;2023-04-09T08:37:09;98814.81;;;7.80;96.84
56182;BME280;51963;46.052;14.544;2023-04-09T08:39:37;98834.03;;;7.72;97.29
56182;BME280;51963;46.052;14.544;2023-04-09T08:42:05;98829.56;;;8.07;94.77
56182;BME280;51963;46.052;14.544;2023-04-09T08:44:31;98828.16;;;8.38;90.68
56182;BME280;51963;46.052;14.544;2023-04-09T08:46:58;98821.78;;;8.49;89.29
56182;BME280;51963;46.052;14.544;2023-04-09T08:49:24;98831.06;;;8.10;92.16
56182;BME280;51963;46.052;14.544;2023-04-09T08:51:50;98821.06;;;8.30;91.49
56182;BME280;51963;46.052;14.544;2023-04-09T08:54:17;98830.28;;;8.43;88.37
56182;BME280;51963;46.052;14.544;2023-04-09T08:56:45;98827.91;;;8.91;87.39
56182;BME280;51963;46.052;14.544;2023-04-09T08:59:14;98842.88;;;8.99;85.86
56182;BME280;51963;46.052;14.544;2023-04-09T09:01:43;98836.28;;;9.03;84.94
56182;BME280;51963;46.052;14.544;2023-04-09T09:04:12;98846.44;;;8.40;87.21
56182;BME280;51963;46.052;14.544;2023-04-09T09:06:39;98840.78;;;8.26;89.65
56182;BME280;51963;46.052;14.544;2023-04-09T09:09:13;98840.88;;;8.68;89.13
56182;BME280;51963;46.052;14.544;2023-04-09T09:11:45;98841.72;;;8.68;87.04
56182;BME280;51963;46.052;14.544;2023-04-09T09:14:19;98844.84;;;8.80;88.79
56182;BME280;51963;46.052;14.544;2023-04-09T09:21:58;98842.44;;;8.27;90.95
56182;BME280;51963;46.052;14.544;2023-04-09T09:24:24;98848.13;;;8.65;88.53
56182;BME280;51963;46.052;14.544;2023-04-09T09:26:51;98835.81;;;8.83;86.70
56182;BME280;51963;46.052;14.544;2023-04-09T09:29:16;98836.53;;;9.49;84.79
56182;BME280;51963;46.052;14.544;2023-04-09T09:31:54;98835.84;;;9.56;83.94
56182;BME280;51963;46.052;14.544;2023-04-09T09:34:23;98835.38;;;10.63;77.96
56182;BME280;51963;46.052;14.544;2023-04-09T09:36:49;98830.44;;;11.37;74.36
56182;BME280;51963;46.052;14.544;2023-04-09T09:39:15;98819.75;;;11.45;71.84
56182;BME280;51963;46.052;14.544;2023-04-09T09:41:43;98816.69;;;11.93;70.90
56182;BME280;51963;46.052;14.544;2023-04-09T09:44:10;98816.13;;;12.71;69.22
56182;BME280;51963;46.052;14.544;2023-04-09T09:46:38;98787.97;;;11.75;69.30
56182;BME280;51963;46.052;14.544;2023-04-09T09:49:05;98816.81;;;12.00;69.91
56182;BME280;51963;46.052;14.544;2023-04-09T09:51:34;98813.00;;;12.68;67.05
56182;BME280;51963;46.052;14.544;2023-04-09T09:54:02;98816.63;;;12.38;66.83
56182;BME280;51963;46.052;14.544;2023-04-09T09:56:34;98812.78;;;11.89;68.40
56182;BME280;51963;46.052;14.544;2023-04-09T09:59:01;98818.66;;;11.54;70.66
56182;BME280;51963;46.052;14.544;2023-04-09T10:01:29;98810.94;;;10.99;71.59
56182;BME280;51963;46.052;14.544;2023-04-09T10:03:55;98827.47;;;11.17;68.15
56182;BME280;51963;46.052;14.544;2023-04-09T10:06:24;98824.41;;;11.58;68.32
56182;BME280;51963;46.052;14.544;2023-04-09T10:08:53;98820.06;;;11.87;66.88
56182;BME280;51963;46.052;14.544;2023-04-09T10:11:22;98812.44;;;11.62;67.07
56182;BME280;51963;46.052;14.544;2023-04-09T10:14:07;98807.78;;;11.34;68.54
56182;BME280;51963;46.052;14.544;2023-04-09T10:16:32;98796.91;;;11.14;69.42
56182;BME280;51963;46.052;14.544;2023-04-09T10:18:59;98808.41;;;11.21;68.34
56182;BME280;51963;46.052;14.544;2023-04-09T10:24:07;98801.84;;;11.17;68.20
56182;BME280;51963;46.052;14.544;2023-04-09T10:26:34;98807.66;;;10.97;71.55
56182;BME280;51963;46.052;14.544;2023-04-09T10:29:12;98791.78;;;11.87;64.74
56182;BME280;51963;46.052;14.544;2023-04-09T10:34:14;98776.69;;;10.83;72.50
56182;BME280;51963;46.052;14.544;2023-04-09T10:36:42;98792.97;;;11.25;69.34
56182;BME280;51963;46.052;14.544;2023-04-09T10:39:12;98798.38;;;10.55;70.17
56182;BME280;51963;46.052;14.544;2023-04-09T10:41:41;98795.84;;;10.85;71.15
56182;BME280;51963;46.052;14.544;2023-04-09T10:44:26;98794.03;;;10.39;71.98
56182;BME280;51963;46.052;14.544;2023-04-09T10:46:53;98796.19;;;10.35;74.17
56182;BME280;51963;46.052;14.544;2023-04-09T10:49:23;98808.72;;;10.10;79.13
56182;BME280;51963;46.052;14.544;2023-04-09T10:52:00;98802.47;;;9.15;85.75
56182;BME280;51963;46.052;14.544;2023-04-09T10:59:36;98797.03;;;9.08;92.60
56182;BME280;51963;46.052;14.544;2023-04-09T11:08:05;98797.53;;;10.31;85.93
56182;BME280;51963;46.052;14.544;2023-04-09T11:10:34;98785.19;;;11.83;78.38
56182;BME280;51963;46.052;14.544;2023-04-09T11:13:01;98789.34;;;13.23;73.23
56182;BME280;51963;46.052;14.544;2023-04-09T11:15:27;98782.97;;;13.46;66.28
56182;BME280;51963;46.052;14.544;2023-04-09T11:17:54;98765.47;;;13.58;68.01
56182;BME280;51963;46.052;14.544;2023-04-09T11:20:21;98775.84;;;14.02;64.53
56182;BME280;51963;46.052;14.544;2023-04-09T11:22:53;98772.47;;;12.52;70.27
56182;BME280;51963;46.052;14.544;2023-04-09T11:25:26;98778.34;;;12.69;69.27
56182;BME280;51963;46.052;14.544;2023-04-09T11:27:53;98772.84;;;11.91;70.48
56182;BME280;51963;46.052;14.544;2023-04-09T11:30:19;98785.19;;;11.83;71.43
56182;BME280;51963;46.052;14.544;2023-04-09T11:32:45;98769.53;;;12.18;71.18
56182;BME280;51963;46.052;14.544;2023-04-09T11:37:38;98760.22;;;14.81;59.17
56182;BME280;51963;46.052;14.544;2023-04-09T11:40:05;98757.44;;;13.93;63.24
56182;BME280;51963;46.052;14.544;2023-04-09T11:42:30;98773.88;;;13.62;65.10
56182;BME280;51963;46.052;14.544;2023-04-09T11:44:56;98772.03;;;12.49;66.54
56182;BME280;51963;46.052;14.544;2023-04-09T11:47:23;98750.59;;;12.22;64.86
56182;BME280;51963;46.052;14.544;2023-04-09T11:49:49;98760.84;;;11.28;68.99
56182;BME280;51963;46.052;14.544;2023-04-09T11:52:15;98751.28;;;11.27;70.77
56182;BME280;51963;46.052;14.544;2023-04-09T11:54:41;98759.84;;;10.99;74.39
56182;BME280;51963;46.052;14.544;2023-04-09T11:57:07;98771.00;;;10.48;75.32
56182;BME280;51963;46.052;14.544;2023-04-09T11:59:37;98771.81;;;11.25;70.60
56182;BME280;51963;46.052;14.544;2023-04-09T12:02:05;98770.16;;;13.21;62.94
56182;BME280;51963;46.052;14.544;2023-04-09T12:04:31;98769.22;;;15.00;57.00
56182;BME280;51963;46.052;14.544;2023-04-09T12:06:56;98747.31;;;14.64;59.60
56182;BME280;51963;46.052;14.544;2023-04-09T12:09:27;98764.31;;;14.70;56.63
56182;BME280;51963;46.052;14.544;2023-04-09T12:11:55;98760.56;;;14.17;60.42
56182;BME280;51963;46.052;14.544;2023-04-09T12:14:22;98747.03;;;14.05;57.16
56182;BME280;51963;46.052;14.544;2023-04-09T12:16:51;98753.75;;;13.46;58.78
56182;BME280;51963;46.052;14.544;2023-04-09T12:19:16;98747.38;;;12.76;61.78
56182;BME280;51963;46.052;14.544;2023-04-09T12:21:48;98755.28;;;12.98;60.80
56182;BME280;51963;46.052;14.544;2023-04-09T12:24:16;98742.28;;;13.10;60.32
56182;BME280;51963;46.052;14.544;2023-04-09T12:26:43;98748.53;;;12.67;60.83
56182;BME280;51963;46.052;14.544;2023-04-09T12:29:09;98739.63;;;12.53;62.36
56182;BME280;51963;46.052;14.544;2023-04-09T12:31:35;98729.06;;;12.82;60.33
56182;BME280;51963;46.052;14.544;2023-04-09T12:34:01;98752.19;;;13.23;60.84
56182;BME280;51963;46.052;14.544;2023-04-09T12:36:26;98741.69;;;12.80;59.65
56182;BME280;51963;46.052;14.544;2023-04-09T12:38:52;98738.25;;;11.77;63.33
56182;BME280;51963;46.052;14.544;2023-04-09T12:41:18;98750.91;;;11.97;61.57
56182;BME280;51963;46.052;14.544;2023-04-09T12:43:43;98749.34;;;11.66;62.23
56182;BME280;51963;46.052;14.544;2023-04-09T12:46:10;98742.78;;;11.32;61.61
56182;BME280;51963;46.052;14.544;2023-04-09T12:48:35;98752.94;;;11.13;64.56
56182;BME280;51963;46.052;14.544;2023-04-09T12:51:02;98744.25;;;11.04;66.13
56182;BME280;51963;46.052;14.544;2023-04-09T12:53:28;98754.84;;;10.42;66.23
56182;BME280;51963;46.052;14.544;2023-04-09T12:55:53;98760.56;;;10.54;67.50
56182;BME280;51963;46.052;14.544;2023-04-09T12:58:20;98755.25;;;10.78;66.35
56182;BME280;51963;46.052;14.544;2023-04-09T13:00:45;98754.03;;;11.04;66.10
56182;BME280;51963;46.052;14.544;2023-04-09T13:03:11;98748.28;;;11.15;66.19
56182;BME280;51963;46.052;14.544;2023-04-09T13:05:37;98748.53;;;11.35;64.73
56182;BME280;51963;46.052;14.544;2023-04-09T13:08:05;98747.44;;;11.44;62.46
56182;BME280;51963;46.052;14.544;2023-04-09T13:10:32;98734.13;;;13.89;55.51
56182;BME280;51963;46.052;14.544;2023-04-09T13:12:58;98722.38;;;17.61;42.75
56182;BME280;51963;46.052;14.544;2023-04-09T13:15:24;98733.31;;;19.23;38.89
56182;BME280;51963;46.052;14.544;2023-04-09T13:17:49;98731.03;;;19.02;38.89
56182;BME280;51963;46.052;14.544;2023-04-09T13:20:15;98737.41;;;17.93;42.57
56182;BME280;51963;46.052;14.544;2023-04-09T13:22:41;98743.28;;;18.01;40.43
56182;BME280;51963;46.052;14.544;2023-04-09T13:25:07;98737.47;;;16.74;43.51
56182;BME280;51963;46.052;14.544;2023-04-09T13:27:35;98735.22;;;17.52;41.29
56182;BME280;51963;46.052;14.544;2023-04-09T13:30:01;98730.53;;;14.77;46.91
56182;BME280;51963;46.052;14.544;2023-04-09T13:32:26;98740.75;;;13.64;51.94